Observations for LAWRENCE MUNICIPAL, MA (LWM)

KLWM 270254Z AUTO 30006KT 10SM SCT070 SCT085 19/13 A3002 RMK AO2 SLP164 T01890133 53010 
KLWM 270154Z 27004KT 10SM SCT065 BKN090 20/12 A3000 RMK AO2 SLP157 T02000117
KLWM 270054Z 00000KT 10SM FEW085 BKN120 20/11 A2998 RMK AO2 SLP153 T02000111
KLWM 262354Z 30012G19KT 250V320 10SM BKN065 OVC080 23/12 A2999 RMK AO2 PRESRR SLP154 T02280117 10261 20228 53013
KLWM 262254Z 27004KT 10SM FEW070 25/11 A2995 RMK AO2 SLP142 T02500111   
KLWM 262154Z 28006KT 10SM CLR 25/11 A2995 RMK AO2 SLP141 T02500106  
KLWM 262054Z 23008KT 10SM FEW065 26/12 A2995 RMK AO2 SLP140 T02560117 57008 
KLWM 261954Z 30007KT 270V330 10SM FEW100 26/11 A2995 RMK AO2 SLP142 T02560111   
KLWM 261854Z VRB05KT 10SM OVC100 25/11 A2996 RMK AO2 SLP146 T02500111   
KLWM 261754Z 25010G15KT 210V280 10SM BKN070 24/11 A2997 RMK AO2 SLP148 T02440106 10261 20189 58006  
KLWM 261654Z 26011G18KT 10SM FEW075 25/11 A2998 RMK AO2 SLP152 T02500106
KLWM 261554Z 28007G16KT 10SM FEW060 24/10 A2999 RMK AO2 SLP154 T02390100
KLWM 261454Z 29010G17KT 10SM CLR 23/11 A2999 RMK AO2 SLP154 T02280106 53000 
KLWM 261354Z 31011KT 10SM CLR 22/12 A2999 RMK AO2 SLP154 T02170117  
KLWM 261254Z 30009KT 260V330 10SM CLR 21/12 A2998 RMK AO2 SLP153 T02060122  
KLWM 261154Z 25007KT 10SM CLR 19/13 A2999 RMK AO2 SLP153 70034 T01890128 10189 20156 53013  
KLWM 261054Z AUTO 26006KT 10SM CLR 17/13 A2997 RMK AO2 SLP148 T01720128 $   
KLWM 260954Z AUTO 26006KT 10SM CLR 16/13 A2996 RMK AO2 SLP143 T01610128 $   
KLWM 260854Z AUTO 19005KT 10SM CLR 16/13 A2995 RMK AO2 SLP141 T01560133 53002 $ 
KLWM 260754Z AUTO 21004KT 10SM CLR 16/14 A2994 RMK AO2 SLP137 T01610144 $   
KLWM 260654Z AUTO 22005KT 10SM FEW090 FEW120 17/15 A2994 RMK AO2 SLP137 T01720150 $ 
KLWM 260554Z AUTO 25006KT 10SM SCT085 17/15 A2994 RMK AO2 SLP138 60034 T01720150 10250 20172 56002 $
KLWM 260454Z AUTO 23005KT 10SM FEW085 OVC110 18/16 A2995 RMK AO2 RAB11E26 SLP140 P0000 T01830156 402940178 $
KLWM 260354Z AUTO 21004KT 10SM 18/16 A2994 RMK AO2 SLP138 T01780161 $   
KLWM 260254Z AUTO 18004KT 10SM BKN100 OVC110 18/16 A2995 RMK AO2 RAE49 SLP140 P0006 60034 T01780161 50019